Terminal Aerodrome Forecast
Issued by NWS Louisville, KY

Home | Current Version | Previous Version | Text Only | Print | Product List | Glossary On
Versions: 1 2 3 4 5 6 7 8 9 10 11 12
000
FTUS43 KLMK 310500
TAFLEX
TAF
KLEX 310537Z 3106/0106 17007KT 5SM -SHRA BR SCT007 BKN035
     FM311200 18009KT 5SM -SHRA BR BKN025
      TEMPO 3113/3117 2SM -TSRA BR BKN021CB
     FM311800 19010KT P6SM VCSH BKN015=

USA.gov is the U.S. government's official web portal to all federal, state and local government web resources and services.